sensor_id;sensor_type;location;lat;lon;timestamp;temperature;humidity
57829;DHT22;43657;52.698;6.314;2023-10-31T00:01:35;10.50;99.90
57829;DHT22;43657;52.698;6.314;2023-10-31T00:04:00;10.50;99.90
57829;DHT22;43657;52.698;6.314;2023-10-31T00:06:26;10.50;99.90
57829;DHT22;43657;52.698;6.314;2023-10-31T00:08:52;10.50;99.90
57829;DHT22;43657;52.698;6.314;2023-10-31T00:11:17;10.50;99.90
57829;DHT22;43657;52.698;6.314;2023-10-31T00:13:43;10.50;99.90
57829;DHT22;43657;52.698;6.314;2023-10-31T00:16:08;10.50;99.90
57829;DHT22;43657;52.698;6.314;2023-10-31T00:18:34;10.40;99.90
57829;DHT22;43657;52.698;6.314;2023-10-31T00:20:59;10.40;99.90
57829;DHT22;43657;52.698;6.314;2023-10-31T00:23:25;10.40;99.90
57829;DHT22;43657;52.698;6.314;2023-10-31T00:25:51;10.40;99.90
57829;DHT22;43657;52.698;6.314;2023-10-31T00:28:16;10.40;99.90
57829;DHT22;43657;52.698;6.314;2023-10-31T00:30:42;10.30;99.90
57829;DHT22;43657;52.698;6.314;2023-10-31T00:33:07;10.30;99.90
57829;DHT22;43657;52.698;6.314;2023-10-31T00:35:33;10.20;99.90
57829;DHT22;43657;52.698;6.314;2023-10-31T00:37:58;10.20;99.90
57829;DHT22;43657;52.698;6.314;2023-10-31T00:40:24;10.20;99.90
57829;DHT22;43657;52.698;6.314;2023-10-31T00:42:50;10.20;99.90
57829;DHT22;43657;52.698;6.314;2023-10-31T00:45:15;10.20;99.90
57829;DHT22;43657;52.698;6.314;2023-10-31T00:47:41;10.20;99.90
57829;DHT22;43657;52.698;6.314;2023-10-31T00:50:07;10.20;99.90
57829;DHT22;43657;52.698;6.314;2023-10-31T00:52:33;10.10;99.90
57829;DHT22;43657;52.698;6.314;2023-10-31T00:54:59;10.10;99.90
57829;DHT22;43657;52.698;6.314;2023-10-31T00:57:24;10.10;99.90
57829;DHT22;43657;52.698;6.314;2023-10-31T00:59:50;10.00;99.90
57829;DHT22;43657;52.698;6.314;2023-10-31T01:02:15;9.90;99.90
57829;DHT22;43657;52.698;6.314;2023-10-31T01:04:41;9.90;99.90
57829;DHT22;43657;52.698;6.314;2023-10-31T01:07:07;9.80;99.90
57829;DHT22;43657;52.698;6.314;2023-10-31T01:09:37;9.70;99.90
57829;DHT22;43657;52.698;6.314;2023-10-31T01:12:02;9.60;99.90
57829;DHT22;43657;52.698;6.314;2023-10-31T01:14:28;9.50;99.90
57829;DHT22;43657;52.698;6.314;2023-10-31T01:16:53;9.50;99.90
57829;DHT22;43657;52.698;6.314;2023-10-31T01:19:19;9.50;99.90
57829;DHT22;43657;52.698;6.314;2023-10-31T01:21:44;9.40;99.90
57829;DHT22;43657;52.698;6.314;2023-10-31T01:24:10;9.40;99.90
57829;DHT22;43657;52.698;6.314;2023-10-31T01:26:35;9.40;99.90
57829;DHT22;43657;52.698;6.314;2023-10-31T01:29:01;9.40;99.90
57829;DHT22;43657;52.698;6.314;2023-10-31T01:31:27;9.40;99.90
57829;DHT22;43657;52.698;6.314;2023-10-31T01:33:53;9.40;99.90
57829;DHT22;43657;52.698;6.314;2023-10-31T01:36:19;9.40;99.90
57829;DHT22;43657;52.698;6.314;2023-10-31T01:38:44;9.50;99.90
57829;DHT22;43657;52.698;6.314;2023-10-31T01:41:12;9.50;99.90
57829;DHT22;43657;52.698;6.314;2023-10-31T01:43:37;9.50;99.90
57829;DHT22;43657;52.698;6.314;2023-10-31T01:46:03;9.50;99.90
57829;DHT22;43657;52.698;6.314;2023-10-31T01:48:31;9.50;99.90
57829;DHT22;43657;52.698;6.314;2023-10-31T01:50:58;9.50;99.90
57829;DHT22;43657;52.698;6.314;2023-10-31T01:53:25;9.40;99.90
57829;DHT22;43657;52.698;6.314;2023-10-31T01:55:52;9.50;99.90
57829;DHT22;43657;52.698;6.314;2023-10-31T01:58:25;9.40;99.90
57829;DHT22;43657;52.698;6.314;2023-10-31T02:00:51;9.40;99.90
57829;DHT22;43657;52.698;6.314;2023-10-31T02:03:17;9.40;99.90
57829;DHT22;43657;52.698;6.314;2023-10-31T02:05:43;9.40;99.90
57829;DHT22;43657;52.698;6.314;2023-10-31T02:08:09;9.40;99.90
57829;DHT22;43657;52.698;6.314;2023-10-31T02:10:34;9.40;99.90
57829;DHT22;43657;52.698;6.314;2023-10-31T02:13:14;9.40;99.90
57829;DHT22;43657;52.698;6.314;2023-10-31T02:15:40;9.40;99.90
57829;DHT22;43657;52.698;6.314;2023-10-31T02:18:06;9.40;99.90
57829;DHT22;43657;52.698;6.314;2023-10-31T02:20:32;9.40;99.90
57829;DHT22;43657;52.698;6.314;2023-10-31T02:22:58;9.40;99.90
57829;DHT22;43657;52.698;6.314;2023-10-31T02:25:23;9.40;99.90
57829;DHT22;43657;52.698;6.314;2023-10-31T02:27:49;9.40;99.90
57829;DHT22;43657;52.698;6.314;2023-10-31T02:30:15;9.40;99.90
57829;DHT22;43657;52.698;6.314;2023-10-31T02:32:41;9.40;99.90
57829;DHT22;43657;52.698;6.314;2023-10-31T02:35:07;9.50;99.90
57829;DHT22;43657;52.698;6.314;2023-10-31T02:37:33;9.50;99.90
57829;DHT22;43657;52.698;6.314;2023-10-31T02:39:59;9.50;99.90
57829;DHT22;43657;52.698;6.314;2023-10-31T02:42:26;9.50;99.90
57829;DHT22;43657;52.698;6.314;2023-10-31T02:44:52;9.50;99.90
57829;DHT22;43657;52.698;6.314;2023-10-31T02:47:17;9.50;99.90
57829;DHT22;43657;52.698;6.314;2023-10-31T02:49:43;9.60;99.90
57829;DHT22;43657;52.698;6.314;2023-10-31T02:52:08;9.60;99.90
57829;DHT22;43657;52.698;6.314;2023-10-31T02:54:34;9.60;99.90
57829;DHT22;43657;52.698;6.314;2023-10-31T02:56:59;9.60;99.90
57829;DHT22;43657;52.698;6.314;2023-10-31T02:59:25;9.60;99.90
57829;DHT22;43657;52.698;6.314;2023-10-31T03:01:52;9.60;99.90
57829;DHT22;43657;52.698;6.314;2023-10-31T03:04:18;9.70;99.90
57829;DHT22;43657;52.698;6.314;2023-10-31T03:06:43;9.70;99.90
57829;DHT22;43657;52.698;6.314;2023-10-31T03:09:09;9.70;99.90
57829;DHT22;43657;52.698;6.314;2023-10-31T03:11:35;9.80;99.90
57829;DHT22;43657;52.698;6.314;2023-10-31T03:14:00;9.80;99.90
57829;DHT22;43657;52.698;6.314;2023-10-31T03:16:26;9.80;99.90
57829;DHT22;43657;52.698;6.314;2023-10-31T03:18:52;9.80;99.90
57829;DHT22;43657;52.698;6.314;2023-10-31T03:21:18;9.80;99.90
57829;DHT22;43657;52.698;6.314;2023-10-31T03:23:47;9.80;99.90
57829;DHT22;43657;52.698;6.314;2023-10-31T03:26:14;9.80;99.90
57829;DHT22;43657;52.698;6.314;2023-10-31T03:28:40;9.80;99.90
57829;DHT22;43657;52.698;6.314;2023-10-31T03:31:09;9.80;99.90
57829;DHT22;43657;52.698;6.314;2023-10-31T03:33:44;9.80;99.90
57829;DHT22;43657;52.698;6.314;2023-10-31T03:36:10;9.80;99.90
57829;DHT22;43657;52.698;6.314;2023-10-31T03:38:35;9.80;99.90
57829;DHT22;43657;52.698;6.314;2023-10-31T03:41:01;9.80;99.90
57829;DHT22;43657;52.698;6.314;2023-10-31T03:43:27;9.80;99.90
57829;DHT22;43657;52.698;6.314;2023-10-31T03:46:04;9.80;99.90
57829;DHT22;43657;52.698;6.314;2023-10-31T03:48:33;9.80;99.90
57829;DHT22;43657;52.698;6.314;2023-10-31T03:51:01;9.80;99.90
57829;DHT22;43657;52.698;6.314;2023-10-31T03:53:27;9.70;99.90
57829;DHT22;43657;52.698;6.314;2023-10-31T03:55:58;9.70;99.90
57829;DHT22;43657;52.698;6.314;2023-10-31T03:58:24;9.70;99.90
57829;DHT22;43657;52.698;6.314;2023-10-31T04:00:49;9.70;99.90
57829;DHT22;43657;52.698;6.314;2023-10-31T04:03:15;9.70;99.90
57829;DHT22;43657;52.698;6.314;2023-10-31T04:05:44;9.70;99.90
57829;DHT22;43657;52.698;6.314;2023-10-31T04:08:10;9.70;99.90
57829;DHT22;43657;52.698;6.314;2023-10-31T04:10:36;9.70;99.90
57829;DHT22;43657;52.698;6.314;2023-10-31T04:13:03;9.60;99.90
57829;DHT22;43657;52.698;6.314;2023-10-31T04:15:32;9.70;99.90
57829;DHT22;43657;52.698;6.314;2023-10-31T04:18:00;9.70;99.90
57829;DHT22;43657;52.698;6.314;2023-10-31T04:20:28;9.70;99.90
57829;DHT22;43657;52.698;6.314;2023-10-31T04:22:54;9.60;99.90
57829;DHT22;43657;52.698;6.314;2023-10-31T04:25:19;9.70;99.90
57829;DHT22;43657;52.698;6.314;2023-10-31T04:27:45;9.70;99.90
57829;DHT22;43657;52.698;6.314;2023-10-31T04:30:11;9.60;99.90
57829;DHT22;43657;52.698;6.314;2023-10-31T04:32:37;9.70;99.90
57829;DHT22;43657;52.698;6.314;2023-10-31T04:35:11;9.70;99.90
57829;DHT22;43657;52.698;6.314;2023-10-31T04:37:43;9.70;99.90
57829;DHT22;43657;52.698;6.314;2023-10-31T04:40:09;9.60;99.90
57829;DHT22;43657;52.698;6.314;2023-10-31T04:42:35;9.60;99.90
57829;DHT22;43657;52.698;6.314;2023-10-31T04:45:04;9.60;99.90
57829;DHT22;43657;52.698;6.314;2023-10-31T04:47:29;9.60;99.90
57829;DHT22;43657;52.698;6.314;2023-10-31T04:49:55;9.60;99.90
57829;DHT22;43657;52.698;6.314;2023-10-31T04:52:21;9.60;99.90
57829;DHT22;43657;52.698;6.314;2023-10-31T04:54:48;9.60;99.90
57829;DHT22;43657;52.698;6.314;2023-10-31T04:57:13;9.60;99.90
57829;DHT22;43657;52.698;6.314;2023-10-31T04:59:39;9.60;99.90
57829;DHT22;43657;52.698;6.314;2023-10-31T05:02:04;9.60;99.90
57829;DHT22;43657;52.698;6.314;2023-10-31T05:04:30;9.60;99.90
57829;DHT22;43657;52.698;6.314;2023-10-31T05:06:55;9.60;99.90
57829;DHT22;43657;52.698;6.314;2023-10-31T05:09:23;9.60;99.90
57829;DHT22;43657;52.698;6.314;2023-10-31T05:11:48;9.60;99.90
57829;DHT22;43657;52.698;6.314;2023-10-31T05:14:14;9.60;99.90
57829;DHT22;43657;52.698;6.314;2023-10-31T05:16:41;9.60;99.90
57829;DHT22;43657;52.698;6.314;2023-10-31T05:19:07;9.60;99.90
57829;DHT22;43657;52.698;6.314;2023-10-31T05:21:32;9.60;99.90
57829;DHT22;43657;52.698;6.314;2023-10-31T05:23:58;9.60;99.90
57829;DHT22;43657;52.698;6.314;2023-10-31T05:26:23;9.60;99.90
57829;DHT22;43657;52.698;6.314;2023-10-31T05:28:49;9.60;99.90
57829;DHT22;43657;52.698;6.314;2023-10-31T05:31:17;9.60;99.90
57829;DHT22;43657;52.698;6.314;2023-10-31T05:33:43;9.60;99.90
57829;DHT22;43657;52.698;6.314;2023-10-31T05:36:19;9.60;99.90
57829;DHT22;43657;52.698;6.314;2023-10-31T05:38:45;9.70;99.90
57829;DHT22;43657;52.698;6.314;2023-10-31T05:41:10;9.70;99.90
57829;DHT22;43657;52.698;6.314;2023-10-31T05:43:36;9.70;99.90
57829;DHT22;43657;52.698;6.314;2023-10-31T05:46:02;9.70;99.90
57829;DHT22;43657;52.698;6.314;2023-10-31T05:48:27;9.70;99.90
57829;DHT22;43657;52.698;6.314;2023-10-31T05:50:53;9.70;99.90
57829;DHT22;43657;52.698;6.314;2023-10-31T05:53:18;9.60;99.90
57829;DHT22;43657;52.698;6.314;2023-10-31T05:55:44;9.60;99.90
57829;DHT22;43657;52.698;6.314;2023-10-31T05:58:09;9.60;99.90
57829;DHT22;43657;52.698;6.314;2023-10-31T06:00:35;9.60;99.90
57829;DHT22;43657;52.698;6.314;2023-10-31T06:03:02;9.60;99.90
57829;DHT22;43657;52.698;6.314;2023-10-31T06:05:27;9.60;99.90
57829;DHT22;43657;52.698;6.314;2023-10-31T06:07:53;9.60;99.90
57829;DHT22;43657;52.698;6.314;2023-10-31T06:10:19;9.60;99.90
57829;DHT22;43657;52.698;6.314;2023-10-31T06:12:44;9.60;99.90
57829;DHT22;43657;52.698;6.314;2023-10-31T06:15:10;9.60;99.90
57829;DHT22;43657;52.698;6.314;2023-10-31T06:17:35;9.60;99.90
57829;DHT22;43657;52.698;6.314;2023-10-31T06:20:01;9.60;99.90
57829;DHT22;43657;52.698;6.314;2023-10-31T06:22:27;9.60;99.90
57829;DHT22;43657;52.698;6.314;2023-10-31T06:24:52;9.60;99.90
57829;DHT22;43657;52.698;6.314;2023-10-31T06:27:18;9.60;99.90
57829;DHT22;43657;52.698;6.314;2023-10-31T06:29:44;9.60;99.90
57829;DHT22;43657;52.698;6.314;2023-10-31T06:32:09;9.60;99.90
57829;DHT22;43657;52.698;6.314;2023-10-31T06:34:35;9.60;99.90
57829;DHT22;43657;52.698;6.314;2023-10-31T06:37:00;9.60;99.90
57829;DHT22;43657;52.698;6.314;2023-10-31T06:39:26;9.60;99.90
57829;DHT22;43657;52.698;6.314;2023-10-31T06:41:54;9.60;99.90
57829;DHT22;43657;52.698;6.314;2023-10-31T06:44:21;9.60;99.90
57829;DHT22;43657;52.698;6.314;2023-10-31T06:46:46;9.70;99.90
57829;DHT22;43657;52.698;6.314;2023-10-31T06:49:12;9.60;99.90
57829;DHT22;43657;52.698;6.314;2023-10-31T06:51:37;9.70;99.90
57829;DHT22;43657;52.698;6.314;2023-10-31T06:54:03;9.70;99.90
57829;DHT22;43657;52.698;6.314;2023-10-31T06:56:29;9.70;99.90
57829;DHT22;43657;52.698;6.314;2023-10-31T06:58:55;9.70;99.90
57829;DHT22;43657;52.698;6.314;2023-10-31T07:01:20;9.70;99.90
57829;DHT22;43657;52.698;6.314;2023-10-31T07:03:46;9.70;99.90
57829;DHT22;43657;52.698;6.314;2023-10-31T07:06:12;9.70;99.90
57829;DHT22;43657;52.698;6.314;2023-10-31T07:08:38;9.80;99.90
57829;DHT22;43657;52.698;6.314;2023-10-31T07:11:03;9.80;99.90
57829;DHT22;43657;52.698;6.314;2023-10-31T07:13:30;9.80;99.90
57829;DHT22;43657;52.698;6.314;2023-10-31T07:15:56;9.90;99.90
57829;DHT22;43657;52.698;6.314;2023-10-31T07:18:21;9.90;99.90
57829;DHT22;43657;52.698;6.314;2023-10-31T07:20:47;10.00;99.90
57829;DHT22;43657;52.698;6.314;2023-10-31T07:23:12;10.00;99.90
57829;DHT22;43657;52.698;6.314;2023-10-31T07:25:38;10.00;99.90
57829;DHT22;43657;52.698;6.314;2023-10-31T07:28:04;10.10;99.90
57829;DHT22;43657;52.698;6.314;2023-10-31T07:30:29;10.10;99.90
57829;DHT22;43657;52.698;6.314;2023-10-31T07:32:55;10.10;99.90
57829;DHT22;43657;52.698;6.314;2023-10-31T07:35:21;10.10;99.90
57829;DHT22;43657;52.698;6.314;2023-10-31T07:37:46;10.20;99.90
57829;DHT22;43657;52.698;6.314;2023-10-31T07:40:12;10.20;99.90
57829;DHT22;43657;52.698;6.314;2023-10-31T07:42:37;10.20;99.90
57829;DHT22;43657;52.698;6.314;2023-10-31T07:45:03;10.30;99.90
57829;DHT22;43657;52.698;6.314;2023-10-31T07:47:29;10.30;99.90
57829;DHT22;43657;52.698;6.314;2023-10-31T07:49:55;10.30;99.90
57829;DHT22;43657;52.698;6.314;2023-10-31T07:52:20;10.40;99.90
57829;DHT22;43657;52.698;6.314;2023-10-31T07:54:46;10.40;99.90
57829;DHT22;43657;52.698;6.314;2023-10-31T07:57:11;10.40;99.90
57829;DHT22;43657;52.698;6.314;2023-10-31T07:59:37;10.50;99.90
57829;DHT22;43657;52.698;6.314;2023-10-31T08:02:02;10.50;99.90
57829;DHT22;43657;52.698;6.314;2023-10-31T08:04:28;10.60;99.90
57829;DHT22;43657;52.698;6.314;2023-10-31T08:06:55;10.60;99.90
57829;DHT22;43657;52.698;6.314;2023-10-31T08:09:21;10.70;99.90
57829;DHT22;43657;52.698;6.314;2023-10-31T08:11:46;10.70;99.90
57829;DHT22;43657;52.698;6.314;2023-10-31T08:14:12;10.80;99.90
57829;DHT22;43657;52.698;6.314;2023-10-31T08:16:37;10.90;99.90
57829;DHT22;43657;52.698;6.314;2023-10-31T08:19:03;10.90;99.90
57829;DHT22;43657;52.698;6.314;2023-10-31T08:21:29;10.90;99.90
57829;DHT22;43657;52.698;6.314;2023-10-31T08:23:59;11.00;99.90
57829;DHT22;43657;52.698;6.314;2023-10-31T08:26:25;11.00;99.90
57829;DHT22;43657;52.698;6.314;2023-10-31T08:28:51;10.90;99.90
57829;DHT22;43657;52.698;6.314;2023-10-31T08:31:17;10.90;99.90
57829;DHT22;43657;52.698;6.314;2023-10-31T08:33:42;10.90;99.90
57829;DHT22;43657;52.698;6.314;2023-10-31T08:36:08;11.00;99.90
57829;DHT22;43657;52.698;6.314;2023-10-31T08:38:34;10.80;99.90
57829;DHT22;43657;52.698;6.314;2023-10-31T08:41:00;10.80;99.90
57829;DHT22;43657;52.698;6.314;2023-10-31T08:43:25;10.80;99.90
57829;DHT22;43657;52.698;6.314;2023-10-31T08:45:51;10.90;99.90
57829;DHT22;43657;52.698;6.314;2023-10-31T08:48:17;11.10;99.90
57829;DHT22;43657;52.698;6.314;2023-10-31T08:50:43;11.20;99.90
57829;DHT22;43657;52.698;6.314;2023-10-31T08:53:09;11.20;99.90
57829;DHT22;43657;52.698;6.314;2023-10-31T08:55:34;11.10;99.90
57829;DHT22;43657;52.698;6.314;2023-10-31T08:58:00;11.20;99.90
57829;DHT22;43657;52.698;6.314;2023-10-31T09:00:25;11.20;99.90
57829;DHT22;43657;52.698;6.314;2023-10-31T09:02:53;11.30;99.90
57829;DHT22;43657;52.698;6.314;2023-10-31T09:05:19;11.30;99.90
57829;DHT22;43657;52.698;6.314;2023-10-31T09:07:44;11.20;99.90
57829;DHT22;43657;52.698;6.314;2023-10-31T09:10:12;11.20;99.90
57829;DHT22;43657;52.698;6.314;2023-10-31T09:12:38;11.20;99.90
57829;DHT22;43657;52.698;6.314;2023-10-31T09:15:04;11.30;99.90
57829;DHT22;43657;52.698;6.314;2023-10-31T09:17:29;11.40;99.90
57829;DHT22;43657;52.698;6.314;2023-10-31T09:19:55;11.30;99.90
57829;DHT22;43657;52.698;6.314;2023-10-31T09:22:21;11.30;99.90
57829;DHT22;43657;52.698;6.314;2023-10-31T09:24:46;11.30;99.90
57829;DHT22;43657;52.698;6.314;2023-10-31T09:27:12;11.40;99.90
57829;DHT22;43657;52.698;6.314;2023-10-31T09:29:37;11.40;99.90
57829;DHT22;43657;52.698;6.314;2023-10-31T09:42:25;13.50;99.90
57829;DHT22;43657;52.698;6.314;2023-10-31T09:44:51;13.50;99.90
57829;DHT22;43657;52.698;6.314;2023-10-31T09:47:16;13.60;99.90
57829;DHT22;43657;52.698;6.314;2023-10-31T09:49:43;13.80;99.90
57829;DHT22;43657;52.698;6.314;2023-10-31T09:52:10;14.00;99.90
57829;DHT22;43657;52.698;6.314;2023-10-31T09:54:37;14.10;99.90
57829;DHT22;43657;52.698;6.314;2023-10-31T09:57:03;14.20;99.90
57829;DHT22;43657;52.698;6.314;2023-10-31T09:59:29;14.10;99.90
57829;DHT22;43657;52.698;6.314;2023-10-31T10:01:55;13.80;99.90
57829;DHT22;43657;52.698;6.314;2023-10-31T10:04:21;13.70;99.90
57829;DHT22;43657;52.698;6.314;2023-10-31T10:07:03;13.90;99.90
57829;DHT22;43657;52.698;6.314;2023-10-31T10:09:29;13.80;99.90
57829;DHT22;43657;52.698;6.314;2023-10-31T10:11:56;13.90;99.90
57829;DHT22;43657;52.698;6.314;2023-10-31T10:14:28;14.20;99.90
57829;DHT22;43657;52.698;6.314;2023-10-31T10:16:54;14.80;99.90
57829;DHT22;43657;52.698;6.314;2023-10-31T10:19:22;15.60;99.90
57829;DHT22;43657;52.698;6.314;2023-10-31T10:21:51;15.80;99.90
57829;DHT22;43657;52.698;6.314;2023-10-31T10:24:18;15.50;99.90
57829;DHT22;43657;52.698;6.314;2023-10-31T10:26:44;15.10;99.90
57829;DHT22;43657;52.698;6.314;2023-10-31T10:29:10;14.80;99.90
57829;DHT22;43657;52.698;6.314;2023-10-31T10:31:35;14.60;99.90
57829;DHT22;43657;52.698;6.314;2023-10-31T10:34:01;14.30;99.90
57829;DHT22;43657;52.698;6.314;2023-10-31T10:36:32;14.00;99.90
57829;DHT22;43657;52.698;6.314;2023-10-31T10:38:59;13.90;99.90
57829;DHT22;43657;52.698;6.314;2023-10-31T10:41:28;13.70;99.90
57829;DHT22;43657;52.698;6.314;2023-10-31T10:44:00;13.50;99.90
57829;DHT22;43657;52.698;6.314;2023-10-31T10:46:29;13.40;99.90
57829;DHT22;43657;52.698;6.314;2023-10-31T10:48:58;13.30;99.90
57829;DHT22;43657;52.698;6.314;2023-10-31T10:51:29;13.30;99.90
57829;DHT22;43657;52.698;6.314;2023-10-31T10:54:05;13.30;99.90
57829;DHT22;43657;52.698;6.314;2023-10-31T10:56:38;13.20;99.90
57829;DHT22;43657;52.698;6.314;2023-10-31T10:59:13;12.90;99.90
57829;DHT22;43657;52.698;6.314;2023-10-31T11:01:41;12.80;99.90
57829;DHT22;43657;52.698;6.314;2023-10-31T11:04:07;12.70;99.90
57829;DHT22;43657;52.698;6.314;2023-10-31T11:06:33;12.70;99.90
57829;DHT22;43657;52.698;6.314;2023-10-31T11:09:00;12.80;99.90
57829;DHT22;43657;52.698;6.314;2023-10-31T11:11:27;12.80;99.90
57829;DHT22;43657;52.698;6.314;2023-10-31T11:13:53;13.20;99.90
57829;DHT22;43657;52.698;6.314;2023-10-31T11:16:55;13.50;99.90
57829;DHT22;43657;52.698;6.314;2023-10-31T11:19:22;14.20;99.90
57829;DHT22;43657;52.698;6.314;2023-10-31T11:21:58;14.80;99.90
57829;DHT22;43657;52.698;6.314;2023-10-31T11:24:37;14.80;99.90
57829;DHT22;43657;52.698;6.314;2023-10-31T11:27:05;14.30;99.90
57829;DHT22;43657;52.698;6.314;2023-10-31T11:29:31;13.90;99.90
57829;DHT22;43657;52.698;6.314;2023-10-31T11:31:58;13.50;99.90
57829;DHT22;43657;52.698;6.314;2023-10-31T11:34:28;13.10;99.90
57829;DHT22;43657;52.698;6.314;2023-10-31T11:40:15;13.30;99.90
57829;DHT22;43657;52.698;6.314;2023-10-31T11:42:41;13.50;99.90
57829;DHT22;43657;52.698;6.314;2023-10-31T11:45:10;14.20;99.90
57829;DHT22;43657;52.698;6.314;2023-10-31T11:47:46;14.60;99.90
57829;DHT22;43657;52.698;6.314;2023-10-31T11:50:12;14.80;99.90
57829;DHT22;43657;52.698;6.314;2023-10-31T11:52:38;14.70;99.90
57829;DHT22;43657;52.698;6.314;2023-10-31T11:55:08;14.40;99.90
57829;DHT22;43657;52.698;6.314;2023-10-31T11:57:34;14.30;99.90
57829;DHT22;43657;52.698;6.314;2023-10-31T12:00:00;14.50;99.90
57829;DHT22;43657;52.698;6.314;2023-10-31T12:02:25;14.80;99.90
57829;DHT22;43657;52.698;6.314;2023-10-31T12:04:51;15.00;99.90
57829;DHT22;43657;52.698;6.314;2023-10-31T12:07:18;15.40;99.90
57829;DHT22;43657;52.698;6.314;2023-10-31T12:09:47;15.90;99.90
57829;DHT22;43657;52.698;6.314;2023-10-31T12:12:14;16.30;99.90
57829;DHT22;43657;52.698;6.314;2023-10-31T12:14:40;16.80;99.90
57829;DHT22;43657;52.698;6.314;2023-10-31T12:17:06;17.10;99.90
57829;DHT22;43657;52.698;6.314;2023-10-31T12:19:36;17.60;99.90
57829;DHT22;43657;52.698;6.314;2023-10-31T12:22:01;18.20;99.90
57829;DHT22;43657;52.698;6.314;2023-10-31T12:24:28;18.40;99.90
57829;DHT22;43657;52.698;6.314;2023-10-31T12:26:54;18.20;99.90
57829;DHT22;43657;52.698;6.314;2023-10-31T12:29:20;17.80;99.90
57829;DHT22;43657;52.698;6.314;2023-10-31T12:31:48;17.50;99.90
57829;DHT22;43657;52.698;6.314;2023-10-31T12:34:15;17.20;99.90
57829;DHT22;43657;52.698;6.314;2023-10-31T12:36:42;16.80;99.90
57829;DHT22;43657;52.698;6.314;2023-10-31T12:39:10;16.30;99.90
57829;DHT22;43657;52.698;6.314;2023-10-31T12:41:37;16.10;99.90
57829;DHT22;43657;52.698;6.314;2023-10-31T12:44:03;15.90;99.90
57829;DHT22;43657;52.698;6.314;2023-10-31T12:46:31;16.00;99.90
57829;DHT22;43657;52.698;6.314;2023-10-31T12:48:59;16.10;99.90
57829;DHT22;43657;52.698;6.314;2023-10-31T12:51:25;16.20;99.90
57829;DHT22;43657;52.698;6.314;2023-10-31T12:53:51;16.10;99.90
57829;DHT22;43657;52.698;6.314;2023-10-31T12:56:37;15.80;99.90
57829;DHT22;43657;52.698;6.314;2023-10-31T12:59:06;15.50;99.90
57829;DHT22;43657;52.698;6.314;2023-10-31T13:01:36;15.10;99.90
57829;DHT22;43657;52.698;6.314;2023-10-31T13:04:04;14.90;99.90
57829;DHT22;43657;52.698;6.314;2023-10-31T13:06:30;14.70;99.90
57829;DHT22;43657;52.698;6.314;2023-10-31T13:08:56;14.60;99.90
57829;DHT22;43657;52.698;6.314;2023-10-31T13:11:32;14.70;99.90
57829;DHT22;43657;52.698;6.314;2023-10-31T13:13:57;14.60;99.90
57829;DHT22;43657;52.698;6.314;2023-10-31T13:16:27;14.50;99.90
57829;DHT22;43657;52.698;6.314;2023-10-31T13:18:53;14.30;99.90
57829;DHT22;43657;52.698;6.314;2023-10-31T13:21:20;14.20;99.90
57829;DHT22;43657;52.698;6.314;2023-10-31T13:23:45;14.10;99.90
57829;DHT22;43657;52.698;6.314;2023-10-31T13:26:13;14.00;99.90
57829;DHT22;43657;52.698;6.314;2023-10-31T13:28:39;13.90;99.90
57829;DHT22;43657;52.698;6.314;2023-10-31T13:31:05;13.80;99.90
57829;DHT22;43657;52.698;6.314;2023-10-31T13:33:32;13.70;99.90
57829;DHT22;43657;52.698;6.314;2023-10-31T13:35:58;13.70;99.90
57829;DHT22;43657;52.698;6.314;2023-10-31T13:38:23;13.60;99.90
57829;DHT22;43657;52.698;6.314;2023-10-31T13:40:49;13.50;99.90
57829;DHT22;43657;52.698;6.314;2023-10-31T13:43:14;13.40;99.90
57829;DHT22;43657;52.698;6.314;2023-10-31T13:45:40;13.20;99.90
57829;DHT22;43657;52.698;6.314;2023-10-31T13:48:05;13.10;99.90
57829;DHT22;43657;52.698;6.314;2023-10-31T13:50:31;13.00;99.90
57829;DHT22;43657;52.698;6.314;2023-10-31T13:52:56;13.00;99.90
57829;DHT22;43657;52.698;6.314;2023-10-31T13:55:22;13.00;99.90
57829;DHT22;43657;52.698;6.314;2023-10-31T13:57:49;13.00;99.90
57829;DHT22;43657;52.698;6.314;2023-10-31T14:00:15;13.00;99.90
57829;DHT22;43657;52.698;6.314;2023-10-31T14:02:41;12.90;99.90
57829;DHT22;43657;52.698;6.314;2023-10-31T14:05:06;12.60;99.90
57829;DHT22;43657;52.698;6.314;2023-10-31T14:07:32;12.50;99.90
57829;DHT22;43657;52.698;6.314;2023-10-31T14:09:58;12.30;99.90
57829;DHT22;43657;52.698;6.314;2023-10-31T14:12:24;12.30;99.90
57829;DHT22;43657;52.698;6.314;2023-10-31T14:14:51;12.20;99.90
57829;DHT22;43657;52.698;6.314;2023-10-31T14:17:16;12.10;99.90
57829;DHT22;43657;52.698;6.314;2023-10-31T14:19:43;12.10;99.90
57829;DHT22;43657;52.698;6.314;2023-10-31T14:22:08;12.00;99.90
57829;DHT22;43657;52.698;6.314;2023-10-31T14:24:34;11.90;99.90
57829;DHT22;43657;52.698;6.314;2023-10-31T14:27:00;11.80;99.90
57829;DHT22;43657;52.698;6.314;2023-10-31T14:29:26;11.70;99.90
57829;DHT22;43657;52.698;6.314;2023-10-31T14:31:52;11.70;99.90
57829;DHT22;43657;52.698;6.314;2023-10-31T14:34:20;11.60;99.90
57829;DHT22;43657;52.698;6.314;2023-10-31T14:36:46;11.60;99.90
57829;DHT22;43657;52.698;6.314;2023-10-31T14:39:12;11.50;99.90
57829;DHT22;43657;52.698;6.314;2023-10-31T14:41:38;11.50;99.90
57829;DHT22;43657;52.698;6.314;2023-10-31T14:44:04;11.40;99.90
57829;DHT22;43657;52.698;6.314;2023-10-31T14:46:30;11.40;99.90
57829;DHT22;43657;52.698;6.314;2023-10-31T14:48:55;11.30;99.90
57829;DHT22;43657;52.698;6.314;2023-10-31T14:51:21;11.30;99.90
57829;DHT22;43657;52.698;6.314;2023-10-31T14:53:47;11.30;99.90
57829;DHT22;43657;52.698;6.314;2023-10-31T14:56:12;11.20;99.90
57829;DHT22;43657;52.698;6.314;2023-10-31T14:58:39;11.20;99.90
57829;DHT22;43657;52.698;6.314;2023-10-31T15:01:04;11.20;99.90
57829;DHT22;43657;52.698;6.314;2023-10-31T15:03:31;11.10;99.90
57829;DHT22;43657;52.698;6.314;2023-10-31T15:05:58;11.10;99.90
57829;DHT22;43657;52.698;6.314;2023-10-31T15:08:24;11.00;99.90
57829;DHT22;43657;52.698;6.314;2023-10-31T15:10:52;11.00;99.90
57829;DHT22;43657;52.698;6.314;2023-10-31T15:13:17;10.90;99.90
57829;DHT22;43657;52.698;6.314;2023-10-31T15:15:43;10.90;99.90
57829;DHT22;43657;52.698;6.314;2023-10-31T15:18:09;10.80;99.90
57829;DHT22;43657;52.698;6.314;2023-10-31T15:20:34;10.80;99.90
57829;DHT22;43657;52.698;6.314;2023-10-31T15:23:00;10.70;99.90
57829;DHT22;43657;52.698;6.314;2023-10-31T15:25:26;10.60;99.90
57829;DHT22;43657;52.698;6.314;2023-10-31T15:27:51;10.60;99.90
57829;DHT22;43657;52.698;6.314;2023-10-31T15:30:17;10.50;99.90
57829;DHT22;43657;52.698;6.314;2023-10-31T15:32:42;10.50;99.90
57829;DHT22;43657;52.698;6.314;2023-10-31T15:35:08;10.40;99.90
57829;DHT22;43657;52.698;6.314;2023-10-31T15:37:35;10.40;99.90
57829;DHT22;43657;52.698;6.314;2023-10-31T15:40:01;10.30;99.90
57829;DHT22;43657;52.698;6.314;2023-10-31T15:42:28;10.20;99.90
57829;DHT22;43657;52.698;6.314;2023-10-31T15:44:54;10.20;99.90
57829;DHT22;43657;52.698;6.314;2023-10-31T15:47:21;10.10;99.90